sensor_id;sensor_type;location;lat;lon;timestamp;pressure;altitude;pressure_sealevel;temperature;humidity
36354;BME280;22383;51.114;13.666;2023-05-16T00:01:44;68328.50;;;10.28;100.00
36354;BME280;22383;51.114;13.666;2023-05-16T00:04:13;68327.56;;;10.30;100.00
36354;BME280;22383;51.114;13.666;2023-05-16T00:06:41;68322.09;;;10.27;100.00
36354;BME280;22383;51.114;13.666;2023-05-16T00:09:09;68316.78;;;10.20;100.00
36354;BME280;22383;51.114;13.666;2023-05-16T00:11:37;68314.91;;;10.16;100.00
36354;BME280;22383;51.114;13.666;2023-05-16T00:14:04;68312.81;;;10.16;100.00
36354;BME280;22383;51.114;13.666;2023-05-16T00:16:32;68316.63;;;10.17;100.00
36354;BME280;22383;51.114;13.666;2023-05-16T00:18:59;68310.56;;;10.14;100.00
36354;BME280;22383;51.114;13.666;2023-05-16T00:21:27;68312.44;;;10.11;100.00
36354;BME280;22383;51.114;13.666;2023-05-16T00:23:55;68304.13;;;10.06;100.00
36354;BME280;22383;51.114;13.666;2023-05-16T00:26:22;68289.78;;;9.98;100.00
36354;BME280;22383;51.114;13.666;2023-05-16T00:28:51;68291.84;;;9.97;100.00
36354;BME280;22383;51.114;13.666;2023-05-16T00:31:18;68282.22;;;9.89;100.00
36354;BME280;22383;51.114;13.666;2023-05-16T00:33:46;68282.03;;;9.86;100.00
36354;BME280;22383;51.114;13.666;2023-05-16T00:36:14;68281.66;;;9.88;100.00
36354;BME280;22383;51.114;13.666;2023-05-16T00:38:41;68278.84;;;9.86;100.00
36354;BME280;22383;51.114;13.666;2023-05-16T00:41:09;68277.69;;;9.84;100.00
36354;BME280;22383;51.114;13.666;2023-05-16T00:43:36;68276.94;;;9.81;100.00
36354;BME280;22383;51.114;13.666;2023-05-16T00:46:06;68269.75;;;9.77;100.00
36354;BME280;22383;51.114;13.666;2023-05-16T00:48:34;68266.56;;;9.77;100.00
36354;BME280;22383;51.114;13.666;2023-05-16T00:51:02;68269.22;;;9.77;100.00
36354;BME280;22383;51.114;13.666;2023-05-16T00:53:29;68261.28;;;9.70;100.00
36354;BME280;22383;51.114;13.666;2023-05-16T00:55:57;68252.97;;;9.64;100.00
36354;BME280;22383;51.114;13.666;2023-05-16T00:58:27;68253.91;;;9.63;100.00
36354;BME280;22383;51.114;13.666;2023-05-16T01:00:56;68249.34;;;9.59;100.00
36354;BME280;22383;51.114;13.666;2023-05-16T01:03:24;68246.34;;;9.54;100.00
36354;BME280;22383;51.114;13.666;2023-05-16T01:05:52;68248.81;;;9.58;100.00
36354;BME280;22383;51.114;13.666;2023-05-16T01:08:20;68248.63;;;9.56;100.00
36354;BME280;22383;51.114;13.666;2023-05-16T01:10:59;68254.28;;;9.61;100.00
36354;BME280;22383;51.114;13.666;2023-05-16T01:16:19;68251.25;;;9.63;100.00
36354;BME280;22383;51.114;13.666;2023-05-16T01:19:02;68261.63;;;9.68;100.00
36354;BME280;22383;51.114;13.666;2023-05-16T01:21:48;68257.50;;;9.69;100.00
36354;BME280;22383;51.114;13.666;2023-05-16T01:27:09;68258.25;;;9.64;100.00
36354;BME280;22383;51.114;13.666;2023-05-16T01:29:38;68253.53;;;9.65;100.00
36354;BME280;22383;51.114;13.666;2023-05-16T01:32:05;68252.97;;;9.64;100.00
36354;BME280;22383;51.114;13.666;2023-05-16T01:34:34;68251.81;;;9.63;100.00
36354;BME280;22383;51.114;13.666;2023-05-16T01:37:10;68254.84;;;9.61;100.00
36354;BME280;22383;51.114;13.666;2023-05-16T01:40:01;68252.75;;;9.62;100.00
36354;BME280;22383;51.114;13.666;2023-05-16T01:42:36;68239.38;;;9.52;100.00
36354;BME280;22383;51.114;13.666;2023-05-16T01:45:15;68235.97;;;9.49;100.00
36354;BME280;22383;51.114;13.666;2023-05-16T01:48:06;68235.22;;;9.46;100.00
36354;BME280;22383;51.114;13.666;2023-05-16T01:50:44;68223.50;;;9.38;100.00
36354;BME280;22383;51.114;13.666;2023-05-16T01:53:18;68224.06;;;9.38;100.00
36354;BME280;22383;51.114;13.666;2023-05-16T01:55:50;68213.88;;;9.29;100.00
36354;BME280;22383;51.114;13.666;2023-05-16T01:58:20;68214.81;;;9.27;100.00
36354;BME280;22383;51.114;13.666;2023-05-16T02:00:58;68206.69;;;9.25;100.00
36354;BME280;22383;51.114;13.666;2023-05-16T02:03:26;68211.03;;;9.19;100.00
36354;BME280;22383;51.114;13.666;2023-05-16T02:05:54;68203.88;;;9.15;100.00
36354;BME280;22383;51.114;13.666;2023-05-16T02:08:22;68196.13;;;9.11;100.00
36354;BME280;22383;51.114;13.666;2023-05-16T02:10:50;68188.75;;;9.04;100.00
36354;BME280;22383;51.114;13.666;2023-05-16T02:13:18;68189.16;;;9.02;100.00
36354;BME280;22383;51.114;13.666;2023-05-16T02:15:46;68193.47;;;9.03;100.00
36354;BME280;22383;51.114;13.666;2023-05-16T02:18:13;68187.66;;;9.03;100.00
36354;BME280;22383;51.114;13.666;2023-05-16T02:20:42;68193.28;;;9.08;100.00
36354;BME280;22383;51.114;13.666;2023-05-16T02:23:10;68186.13;;;9.04;100.00
36354;BME280;22383;51.114;13.666;2023-05-16T02:25:37;68185.00;;;9.03;100.00
36354;BME280;22383;51.114;13.666;2023-05-16T02:28:09;68190.63;;;9.01;100.00
36354;BME280;22383;51.114;13.666;2023-05-16T02:30:36;68185.56;;;9.03;100.00
36354;BME280;22383;51.114;13.666;2023-05-16T02:33:03;68199.53;;;9.14;100.00
36354;BME280;22383;51.114;13.666;2023-05-16T02:35:31;68202.16;;;9.14;100.00
36354;BME280;22383;51.114;13.666;2023-05-16T02:37:59;68196.91;;;9.14;100.00
36354;BME280;22383;51.114;13.666;2023-05-16T02:40:26;68201.41;;;9.18;100.00
36354;BME280;22383;51.114;13.666;2023-05-16T02:42:58;68206.31;;;9.20;100.00
36354;BME280;22383;51.114;13.666;2023-05-16T02:45:25;68206.53;;;9.22;100.00
36354;BME280;22383;51.114;13.666;2023-05-16T02:47:53;68211.22;;;9.22;100.00
36354;BME280;22383;51.114;13.666;2023-05-16T02:50:21;68202.34;;;9.16;100.00
36354;BME280;22383;51.114;13.666;2023-05-16T02:52:49;68198.94;;;9.13;100.00
36354;BME280;22383;51.114;13.666;2023-05-16T02:55:17;68196.50;;;9.08;100.00
36354;BME280;22383;51.114;13.666;2023-05-16T02:57:48;68193.66;;;9.06;100.00
36354;BME280;22383;51.114;13.666;2023-05-16T03:00:17;68188.97;;;9.06;100.00
36354;BME280;22383;51.114;13.666;2023-05-16T03:02:46;68191.22;;;9.08;100.00
36354;BME280;22383;51.114;13.666;2023-05-16T03:05:13;68196.31;;;9.13;100.00
36354;BME280;22383;51.114;13.666;2023-05-16T03:07:41;68188.22;;;9.03;100.00
36354;BME280;22383;51.114;13.666;2023-05-16T03:10:09;68191.03;;;9.06;100.00
36354;BME280;22383;51.114;13.666;2023-05-16T03:12:37;68194.63;;;9.12;100.00
36354;BME280;22383;51.114;13.666;2023-05-16T03:15:05;68201.59;;;9.13;100.00
36354;BME280;22383;51.114;13.666;2023-05-16T03:17:35;68206.13;;;9.17;100.00
36354;BME280;22383;51.114;13.666;2023-05-16T03:20:03;68206.91;;;9.20;100.00
36354;BME280;22383;51.114;13.666;2023-05-16T03:22:34;68209.16;;;9.22;100.00
36354;BME280;22383;51.114;13.666;2023-05-16T03:25:04;68209.16;;;9.22;100.00
36354;BME280;22383;51.114;13.666;2023-05-16T03:27:33;68210.28;;;9.23;100.00
36354;BME280;22383;51.114;13.666;2023-05-16T03:30:00;68221.44;;;9.31;100.00
36354;BME280;22383;51.114;13.666;2023-05-16T03:32:28;68221.44;;;9.31;100.00
36354;BME280;22383;51.114;13.666;2023-05-16T03:34:56;68219.53;;;9.34;100.00
36354;BME280;22383;51.114;13.666;2023-05-16T03:37:24;68222.00;;;9.32;100.00
36354;BME280;22383;51.114;13.666;2023-05-16T03:39:52;68219.34;;;9.32;100.00
36354;BME280;22383;51.114;13.666;2023-05-16T03:42:19;68213.88;;;9.29;100.00
36354;BME280;22383;51.114;13.666;2023-05-16T03:44:47;68219.91;;;9.32;100.00
36354;BME280;22383;51.114;13.666;2023-05-16T03:47:14;68217.09;;;9.30;100.00
36354;BME280;22383;51.114;13.666;2023-05-16T03:49:42;68220.50;;;9.33;100.00
36354;BME280;22383;51.114;13.666;2023-05-16T03:52:09;68219.34;;;9.32;100.00
36354;BME280;22383;51.114;13.666;2023-05-16T03:54:36;68216.16;;;9.31;100.00
36354;BME280;22383;51.114;13.666;2023-05-16T03:57:05;68224.25;;;9.34;100.00
36354;BME280;22383;51.114;13.666;2023-05-16T03:59:32;68223.50;;;9.38;100.00
36354;BME280;22383;51.114;13.666;2023-05-16T04:02:00;68228.59;;;9.42;100.00
36354;BME280;22383;51.114;13.666;2023-05-16T04:04:28;68232.38;;;9.43;100.00
36354;BME280;22383;51.114;13.666;2023-05-16T04:06:55;68233.13;;;9.46;100.00
36354;BME280;22383;51.114;13.666;2023-05-16T04:09:23;68235.97;;;9.49;100.00
36354;BME280;22383;51.114;13.666;2023-05-16T04:11:50;68235.41;;;9.49;100.00
36354;BME280;22383;51.114;13.666;2023-05-16T04:14:18;68242.56;;;9.53;100.00
36354;BME280;22383;51.114;13.666;2023-05-16T04:16:45;68234.25;;;9.48;100.00
36354;BME280;22383;51.114;13.666;2023-05-16T04:19:13;68237.84;;;9.46;100.00
36354;BME280;22383;51.114;13.666;2023-05-16T04:21:40;68230.69;;;9.42;100.00
36354;BME280;22383;51.114;13.666;2023-05-16T04:24:08;68231.25;;;9.42;100.00
36354;BME280;22383;51.114;13.666;2023-05-16T04:26:35;68217.47;;;9.35;100.00
36354;BME280;22383;51.114;13.666;2023-05-16T04:29:05;68221.63;;;9.34;100.00
36354;BME280;22383;51.114;13.666;2023-05-16T04:31:33;68221.44;;;9.31;100.00
36354;BME280;22383;51.114;13.666;2023-05-16T04:34:00;68213.88;;;9.29;100.00
36354;BME280;22383;51.114;13.666;2023-05-16T04:36:28;68218.03;;;9.28;100.00
36354;BME280;22383;51.114;13.666;2023-05-16T04:38:57;68212.19;;;9.27;100.00
36354;BME280;22383;51.114;13.666;2023-05-16T04:41:25;68212.91;;;9.23;100.00
36354;BME280;22383;51.114;13.666;2023-05-16T04:43:53;68208.22;;;9.24;100.00
36354;BME280;22383;51.114;13.666;2023-05-16T04:46:20;68206.53;;;9.22;100.00
36354;BME280;22383;51.114;13.666;2023-05-16T04:48:48;68212.53;;;9.25;100.00
36354;BME280;22383;51.114;13.666;2023-05-16T04:51:15;68214.25;;;9.27;100.00
36354;BME280;22383;51.114;13.666;2023-05-16T04:53:43;68211.97;;;9.25;100.00
36354;BME280;22383;51.114;13.666;2023-05-16T04:56:10;68206.69;;;9.18;100.00
36354;BME280;22383;51.114;13.666;2023-05-16T04:58:38;68204.63;;;9.18;100.00
36354;BME280;22383;51.114;13.666;2023-05-16T05:01:08;68198.00;;;9.15;100.00
36354;BME280;22383;51.114;13.666;2023-05-16T05:03:36;68197.84;;;9.12;100.00
36354;BME280;22383;51.114;13.666;2023-05-16T05:06:04;68200.84;;;9.17;100.00
36354;BME280;22383;51.114;13.666;2023-05-16T05:08:32;68195.19;;;9.12;100.00
36354;BME280;22383;51.114;13.666;2023-05-16T05:11:00;68202.16;;;9.14;100.00
36354;BME280;22383;51.114;13.666;2023-05-16T05:13:27;68189.72;;;9.09;100.00
36354;BME280;22383;51.114;13.666;2023-05-16T05:15:55;68188.22;;;9.03;100.00
36354;BME280;22383;51.114;13.666;2023-05-16T05:18:22;68181.78;;;8.95;100.00
36354;BME280;22383;51.114;13.666;2023-05-16T05:20:50;68171.03;;;8.85;100.00
36354;BME280;22383;51.114;13.666;2023-05-16T05:23:18;68156.50;;;8.75;100.00
36354;BME280;22383;51.114;13.666;2023-05-16T05:25:47;68140.84;;;8.63;100.00
36354;BME280;22383;51.114;13.666;2023-05-16T05:28:14;68137.44;;;8.60;100.00
36354;BME280;22383;51.114;13.666;2023-05-16T05:30:42;68141.41;;;8.56;100.00
36354;BME280;22383;51.114;13.666;2023-05-16T05:33:10;68143.47;;;8.63;100.00
36354;BME280;22383;51.114;13.666;2023-05-16T05:35:38;68132.72;;;8.53;100.00
36354;BME280;22383;51.114;13.666;2023-05-16T05:38:06;68114.22;;;8.39;100.00
36354;BME280;22383;51.114;13.666;2023-05-16T05:40:33;68109.88;;;8.30;100.00
36354;BME280;22383;51.114;13.666;2023-05-16T05:43:01;68098.53;;;8.20;100.00
36354;BME280;22383;51.114;13.666;2023-05-16T05:45:28;68089.13;;;8.13;100.00
36354;BME280;22383;51.114;13.666;2023-05-16T05:47:56;68085.72;;;8.10;100.00
36354;BME280;22383;51.114;13.666;2023-05-16T05:50:24;68083.25;;;8.06;100.00
36354;BME280;22383;51.114;13.666;2023-05-16T05:52:52;68083.25;;;8.06;100.00
36354;BME280;22383;51.114;13.666;2023-05-16T05:55:19;68074.59;;;8.03;100.00
36354;BME280;22383;51.114;13.666;2023-05-16T05:57:47;68084.59;;;8.09;100.00
36354;BME280;22383;51.114;13.666;2023-05-16T06:00:14;68076.13;;;8.02;100.00
36354;BME280;22383;51.114;13.666;2023-05-16T06:02:47;68074.59;;;8.03;100.00
36354;BME280;22383;51.114;13.666;2023-05-16T06:05:15;68084.03;;;8.09;100.00
36354;BME280;22383;51.114;13.666;2023-05-16T06:07:43;68075.19;;;8.03;100.00
36354;BME280;22383;51.114;13.666;2023-05-16T06:10:11;68069.31;;;7.95;100.00
36354;BME280;22383;51.114;13.666;2023-05-16T06:12:38;68075.34;;;7.99;100.00
36354;BME280;22383;51.114;13.666;2023-05-16T06:15:06;68077.59;;;8.01;100.00
36354;BME280;22383;51.114;13.666;2023-05-16T06:17:34;68081.56;;;8.04;100.00
36354;BME280;22383;51.114;13.666;2023-05-16T06:20:03;68076.50;;;8.00;100.00
36354;BME280;22383;51.114;13.666;2023-05-16T06:22:31;68065.56;;;7.94;100.00
36354;BME280;22383;51.114;13.666;2023-05-16T06:24:59;68061.97;;;7.89;100.00
36354;BME280;22383;51.114;13.666;2023-05-16T06:27:26;68050.06;;;7.78;100.00
36354;BME280;22383;51.114;13.666;2023-05-16T06:29:55;68048.97;;;7.77;100.00
36354;BME280;22383;51.114;13.666;2023-05-16T06:32:22;68039.91;;;7.69;100.00
36354;BME280;22383;51.114;13.666;2023-05-16T06:34:50;68045.00;;;7.73;100.00
36354;BME280;22383;51.114;13.666;2023-05-16T06:37:18;68039.72;;;7.66;100.00
36354;BME280;22383;51.114;13.666;2023-05-16T06:39:48;68039.34;;;7.68;100.00
36354;BME280;22383;51.114;13.666;2023-05-16T06:42:15;68029.91;;;7.62;100.00
36354;BME280;22383;51.114;13.666;2023-05-16T06:44:45;68026.53;;;7.59;100.00
36354;BME280;22383;51.114;13.666;2023-05-16T06:47:12;68032.16;;;7.64;100.00
36354;BME280;22383;51.114;13.666;2023-05-16T06:49:40;68034.63;;;7.69;100.00
36354;BME280;22383;51.114;13.666;2023-05-16T06:52:07;68047.81;;;7.76;100.00
36354;BME280;22383;51.114;13.666;2023-05-16T06:54:36;68057.63;;;7.80;100.00
36354;BME280;22383;51.114;13.666;2023-05-16T06:57:03;68047.25;;;7.75;100.00
36354;BME280;22383;51.114;13.666;2023-05-16T06:59:32;68037.28;;;7.69;100.00
36354;BME280;22383;51.114;13.666;2023-05-16T07:02:00;68038.19;;;7.67;100.00
36354;BME280;22383;51.114;13.666;2023-05-16T07:04:29;68035.00;;;7.67;100.00
36354;BME280;22383;51.114;13.666;2023-05-16T07:06:57;68038.19;;;7.67;100.00
36354;BME280;22383;51.114;13.666;2023-05-16T07:09:24;68043.31;;;7.72;100.00
36354;BME280;22383;51.114;13.666;2023-05-16T07:11:52;68042.53;;;7.69;100.00
36354;BME280;22383;51.114;13.666;2023-05-16T07:14:20;68052.91;;;7.81;100.00
36354;BME280;22383;51.114;13.666;2023-05-16T07:16:47;68064.03;;;7.88;100.00
36354;BME280;22383;51.114;13.666;2023-05-16T07:19:15;68064.78;;;7.91;100.00
36354;BME280;22383;51.114;13.666;2023-05-16T07:21:42;68065.72;;;7.90;100.00
36354;BME280;22383;51.114;13.666;2023-05-16T07:24:10;68058.19;;;7.88;100.00
36354;BME280;22383;51.114;13.666;2023-05-16T07:26:41;68063.66;;;7.90;100.00
36354;BME280;22383;51.114;13.666;2023-05-16T07:29:14;68073.84;;;8.00;100.00
36354;BME280;22383;51.114;13.666;2023-05-16T07:31:41;68062.16;;;7.91;100.00
36354;BME280;22383;51.114;13.666;2023-05-16T07:34:09;68055.75;;;7.83;100.00
36354;BME280;22383;51.114;13.666;2023-05-16T07:36:38;68056.31;;;7.84;100.00
36354;BME280;22383;51.114;13.666;2023-05-16T07:39:06;68063.09;;;7.90;100.00
36354;BME280;22383;51.114;13.666;2023-05-16T07:41:33;68063.66;;;7.90;100.00
36354;BME280;22383;51.114;13.666;2023-05-16T07:44:01;68074.41;;;8.00;100.00
36354;BME280;22383;51.114;13.666;2023-05-16T07:46:28;68057.44;;;7.85;100.00
36354;BME280;22383;51.114;13.666;2023-05-16T07:48:56;68056.31;;;7.84;100.00
36354;BME280;22383;51.114;13.666;2023-05-16T07:51:23;68058.94;;;7.84;100.00
36354;BME280;22383;51.114;13.666;2023-05-16T07:53:51;68059.34;;;7.89;100.00
36354;BME280;22383;51.114;13.666;2023-05-16T07:56:19;68057.66;;;7.87;100.00
36354;BME280;22383;51.114;13.666;2023-05-16T07:58:47;68058.38;;;7.83;100.00
36354;BME280;22383;51.114;13.666;2023-05-16T08:01:14;68051.41;;;7.82;100.00
36354;BME280;22383;51.114;13.666;2023-05-16T08:03:43;68055.75;;;7.83;100.00
36354;BME280;22383;51.114;13.666;2023-05-16T08:06:11;68052.91;;;7.81;100.00
36354;BME280;22383;51.114;13.666;2023-05-16T08:08:38;68055.75;;;7.83;100.00
36354;BME280;22383;51.114;13.666;2023-05-16T08:11:06;68054.03;;;7.82;100.00
36354;BME280;22383;51.114;13.666;2023-05-16T08:13:34;68040.09;;;7.71;100.00
36354;BME280;22383;51.114;13.666;2023-05-16T08:16:01;68041.78;;;7.73;100.00
36354;BME280;22383;51.114;13.666;2023-05-16T08:18:30;68049.34;;;7.75;100.00
36354;BME280;22383;51.114;13.666;2023-05-16T08:20:58;68051.59;;;7.77;100.00
36354;BME280;22383;51.114;13.666;2023-05-16T08:23:25;68051.78;;;7.80;100.00
36354;BME280;22383;51.114;13.666;2023-05-16T08:25:53;68050.84;;;7.81;100.00
36354;BME280;22383;51.114;13.666;2023-05-16T08:28:21;68055.56;;;7.81;100.00
36354;BME280;22383;51.114;13.666;2023-05-16T08:30:48;68058.38;;;7.83;100.00
36354;BME280;22383;51.114;13.666;2023-05-16T08:33:16;68049.91;;;7.83;100.00
36354;BME280;22383;51.114;13.666;2023-05-16T08:35:44;68063.47;;;7.88;100.00
36354;BME280;22383;51.114;13.666;2023-05-16T08:38:12;68062.34;;;7.87;100.00
36354;BME280;22383;51.114;13.666;2023-05-16T08:40:42;68062.16;;;7.91;100.00
36354;BME280;22383;51.114;13.666;2023-05-16T08:43:10;68069.13;;;7.93;100.00
36354;BME280;22383;51.114;13.666;2023-05-16T08:45:39;68070.25;;;7.94;100.00
36354;BME280;22383;51.114;13.666;2023-05-16T08:48:09;68067.25;;;7.96;100.00
36354;BME280;22383;51.114;13.666;2023-05-16T08:50:37;68068.38;;;7.97;100.00
36354;BME280;22383;51.114;13.666;2023-05-16T08:53:07;68076.50;;;8.00;100.00
36354;BME280;22383;51.114;13.666;2023-05-16T08:55:36;68072.34;;;8.01;100.00
36354;BME280;22383;51.114;13.666;2023-05-16T08:58:05;68075.56;;;8.01;100.00
36354;BME280;22383;51.114;13.666;2023-05-16T09:00:32;68084.03;;;8.09;100.00
36354;BME280;22383;51.114;13.666;2023-05-16T09:03:01;68081.19;;;8.06;100.00
36354;BME280;22383;51.114;13.666;2023-05-16T09:05:29;68092.13;;;8.19;100.00
36354;BME280;22383;51.114;13.666;2023-05-16T09:08:00;68092.13;;;8.19;100.00
36354;BME280;22383;51.114;13.666;2023-05-16T09:10:43;68091.19;;;8.13;100.00
36354;BME280;22383;51.114;13.666;2023-05-16T09:13:37;68074.25;;;8.05;100.00
36354;BME280;22383;51.114;13.666;2023-05-16T09:18:36;68083.66;;;8.11;100.00
36354;BME280;22383;51.114;13.666;2023-05-16T09:21:05;68080.63;;;8.06;100.00
36354;BME280;22383;51.114;13.666;2023-05-16T09:23:34;68077.22;;;8.03;100.00
36354;BME280;22383;51.114;13.666;2023-05-16T09:26:06;68077.22;;;8.03;100.00
36354;BME280;22383;51.114;13.666;2023-05-16T09:28:37;68079.91;;;8.10;100.00
36354;BME280;22383;51.114;13.666;2023-05-16T09:31:26;68087.44;;;8.12;100.00
36354;BME280;22383;51.114;13.666;2023-05-16T09:33:57;68087.06;;;8.14;100.00
36354;BME280;22383;51.114;13.666;2023-05-16T09:36:25;68087.63;;;8.14;100.00
36354;BME280;22383;51.114;13.666;2023-05-16T09:38:53;68084.03;;;8.09;100.00
36354;BME280;22383;51.114;13.666;2023-05-16T09:41:21;68097.41;;;8.19;100.00
36354;BME280;22383;51.114;13.666;2023-05-16T09:43:50;68104.97;;;8.28;100.00
36354;BME280;22383;51.114;13.666;2023-05-16T09:46:17;68103.47;;;8.29;100.00
36354;BME280;22383;51.114;13.666;2023-05-16T09:48:47;68110.81;;;8.36;100.00
36354;BME280;22383;51.114;13.666;2023-05-16T09:51:14;68122.53;;;8.44;100.00
36354;BME280;22383;51.114;13.666;2023-05-16T09:53:43;68122.88;;;8.42;100.00
36354;BME280;22383;51.114;13.666;2023-05-16T09:56:13;68121.97;;;8.43;100.00
36354;BME280;22383;51.114;13.666;2023-05-16T09:58:43;68131.00;;;8.51;100.00
36354;BME280;22383;51.114;13.666;2023-05-16T10:01:11;68149.16;;;8.68;100.00
36354;BME280;22383;51.114;13.666;2023-05-16T10:03:41;68149.69;;;8.68;100.00
36354;BME280;22383;51.114;13.666;2023-05-16T10:06:13;68144.22;;;8.66;100.00
36354;BME280;22383;51.114;13.666;2023-05-16T10:08:43;68147.25;;;8.71;100.00
36354;BME280;22383;51.114;13.666;2023-05-16T10:11:11;68160.25;;;8.76;100.00
36354;BME280;22383;51.114;13.666;2023-05-16T10:13:39;68155.38;;;8.74;100.00
36354;BME280;22383;51.114;13.666;2023-05-16T10:16:10;68155.56;;;8.76;100.00
36354;BME280;22383;51.114;13.666;2023-05-16T10:18:39;68159.50;;;8.80;100.00
36354;BME280;22383;51.114;13.666;2023-05-16T10:21:09;68168.00;;;8.87;100.00
36354;BME280;22383;51.114;13.666;2023-05-16T10:23:46;68166.88;;;8.86;100.00
36354;BME280;22383;51.114;13.666;2023-05-16T10:26:15;68158.19;;;8.76;100.00
36354;BME280;22383;51.114;13.666;2023-05-16T10:28:44;68159.88;;;8.78;100.00
36354;BME280;22383;51.114;13.666;2023-05-16T10:31:12;68155.16;;;8.78;100.00
36354;BME280;22383;51.114;13.666;2023-05-16T10:33:41;68159.16;;;8.82;100.00
36354;BME280;22383;51.114;13.666;2023-05-16T10:36:10;68171.97;;;8.91;100.00
36354;BME280;22383;51.114;13.666;2023-05-16T10:38:39;68179.91;;;8.98;100.00
36354;BME280;22383;51.114;13.666;2023-05-16T10:41:07;68192.72;;;9.07;100.00
36354;BME280;22383;51.114;13.666;2023-05-16T10:43:35;68204.22;;;9.13;100.00
36354;BME280;22383;51.114;13.666;2023-05-16T10:46:06;68219.53;;;9.34;100.00
36354;BME280;22383;51.114;13.666;2023-05-16T10:48:36;68239.38;;;9.45;100.00
36354;BME280;22383;51.114;13.666;2023-05-16T10:54:04;68257.31;;;9.66;100.00
36354;BME280;22383;51.114;13.666;2023-05-16T10:56:32;68273.16;;;9.80;100.00
36354;BME280;22383;51.114;13.666;2023-05-16T10:59:01;68282.81;;;9.89;100.00
36354;BME280;22383;51.114;13.666;2023-05-16T11:01:34;68300.94;;;10.06;100.00
36354;BME280;22383;51.114;13.666;2023-05-16T11:04:09;68309.81;;;10.11;100.00
36354;BME280;22383;51.114;13.666;2023-05-16T11:14:39;68315.28;;;10.21;100.00
36354;BME280;22383;51.114;13.666;2023-05-16T11:19:49;68324.53;;;10.25;100.00
36354;BME280;22383;51.114;13.666;2023-05-16T11:22:31;68347.44;;;10.48;100.00
36354;BME280;22383;51.114;13.666;2023-05-16T11:25:04;68382.56;;;10.79;100.00
36354;BME280;22383;51.114;13.666;2023-05-16T11:27:43;68424.91;;;11.23;100.00
36354;BME280;22383;51.114;13.666;2023-05-16T11:30:15;68502.84;;;11.88;100.00
36354;BME280;22383;51.114;13.666;2023-05-16T11:32:48;68516.13;;;12.03;100.00
36354;BME280;22383;51.114;13.666;2023-05-16T11:35:17;68505.50;;;11.96;100.00
36354;BME280;22383;51.114;13.666;2023-05-16T11:37:46;68527.44;;;12.13;100.00
36354;BME280;22383;51.114;13.666;2023-05-16T11:40:14;68509.69;;;11.95;100.00
36354;BME280;22383;51.114;13.666;2023-05-16T11:42:45;68493.19;;;11.80;100.00
36354;BME280;22383;51.114;13.666;2023-05-16T11:45:15;68496.78;;;11.85;100.00
36354;BME280;22383;51.114;13.666;2023-05-16T11:47:45;68486.38;;;11.81;100.00
36354;BME280;22383;51.114;13.666;2023-05-16T11:50:19;68471.06;;;11.60;100.00
36354;BME280;22383;51.114;13.666;2023-05-16T11:52:50;68463.31;;;11.55;100.00
36354;BME280;22383;51.114;13.666;2023-05-16T11:55:28;68459.72;;;11.49;100.00
36354;BME280;22383;51.114;13.666;2023-05-16T11:58:03;68476.75;;;11.65;100.00
36354;BME280;22383;51.114;13.666;2023-05-16T12:00:31;68466.16;;;11.58;100.00
36354;BME280;22383;51.114;13.666;2023-05-16T12:03:02;68484.88;;;11.75;100.00
36354;BME280;22383;51.114;13.666;2023-05-16T12:05:31;68489.97;;;11.79;100.00
36354;BME280;22383;51.114;13.666;2023-05-16T12:08:01;68498.13;;;11.89;100.00
36354;BME280;22383;51.114;13.666;2023-05-16T12:10:32;68493.38;;;11.82;100.00
36354;BME280;22383;51.114;13.666;2023-05-16T12:13:02;68469.56;;;11.61;100.00
36354;BME280;22383;51.114;13.666;2023-05-16T12:15:30;68438.91;;;11.33;100.00
36354;BME280;22383;51.114;13.666;2023-05-16T12:17:58;68408.09;;;11.03;100.00
36354;BME280;22383;51.114;13.666;2023-05-16T12:20:26;68391.66;;;10.88;100.00
36354;BME280;22383;51.114;13.666;2023-05-16T12:22:56;68380.13;;;10.75;100.00
36354;BME280;22383;51.114;13.666;2023-05-16T12:25:31;68368.22;;;10.64;100.00
36354;BME280;22383;51.114;13.666;2023-05-16T12:28:00;68355.75;;;10.53;100.00
36354;BME280;22383;51.114;13.666;2023-05-16T12:30:30;68361.22;;;10.63;100.00
36354;BME280;22383;51.114;13.666;2023-05-16T12:33:16;68384.66;;;10.79;100.00
36354;BME280;22383;51.114;13.666;2023-05-16T12:35:45;68403.94;;;10.96;100.00
36354;BME280;22383;51.114;13.666;2023-05-16T12:38:14;68418.88;;;11.12;100.00
36354;BME280;22383;51.114;13.666;2023-05-16T12:40:44;68424.72;;;11.20;100.00
36354;BME280;22383;51.114;13.666;2023-05-16T12:43:19;68419.44;;;11.13;100.00
36354;BME280;22383;51.114;13.666;2023-05-16T12:45:54;68395.25;;;10.93;100.00
36354;BME280;22383;51.114;13.666;2023-05-16T12:48:23;68404.31;;;10.94;100.00
36354;BME280;22383;51.114;13.666;2023-05-16T12:50:56;68412.44;;;11.04;100.00
36354;BME280;22383;51.114;13.666;2023-05-16T12:53:23;68392.03;;;10.86;100.00
36354;BME280;22383;51.114;13.666;2023-05-16T12:55:51;68373.88;;;10.69;100.00
36354;BME280;22383;51.114;13.666;2023-05-16T12:58:18;68355.94;;;10.55;100.00
36354;BME280;22383;51.114;13.666;2023-05-16T13:00:46;68350.28;;;10.50;100.00
36354;BME280;22383;51.114;13.666;2023-05-16T13:03:15;68343.06;;;10.46;100.00
36354;BME280;22383;51.114;13.666;2023-05-16T13:05:43;68347.97;;;10.48;100.00
36354;BME280;22383;51.114;13.666;2023-05-16T13:08:11;68363.50;;;10.65;100.00
36354;BME280;22383;51.114;13.666;2023-05-16T13:10:38;68367.84;;;10.66;100.00
36354;BME280;22383;51.114;13.666;2023-05-16T13:13:06;68370.88;;;10.71;100.00
36354;BME280;22383;51.114;13.666;2023-05-16T13:15:33;68374.25;;;10.74;100.00
36354;BME280;22383;51.114;13.666;2023-05-16T13:18:01;68388.63;;;10.83;100.00
36354;BME280;22383;51.114;13.666;2023-05-16T13:20:29;68397.88;;;10.93;100.00